sensor_id;sensor_type;location;lat;lon;timestamp;P1;durP1;ratioP1;P2;durP2;ratioP2
8502;SDS011;4289;48.664;12.700;2023-02-15T00:00:28;1.00;;;1.00;;
8502;SDS011;4289;48.664;12.700;2023-02-15T00:03:51;0.63;;;0.63;;
8502;SDS011;4289;48.664;12.700;2023-02-15T00:07:14;0.70;;;0.70;;
8502;SDS011;4289;48.664;12.700;2023-02-15T00:10:39;0.40;;;0.40;;
8502;SDS011;4289;48.664;12.700;2023-02-15T00:14:03;0.57;;;0.57;;
8502;SDS011;4289;48.664;12.700;2023-02-15T00:17:27;0.93;;;0.93;;
8502;SDS011;4289;48.664;12.700;2023-02-15T00:20:49;0.90;;;0.90;;
8502;SDS011;4289;48.664;12.700;2023-02-15T00:24:12;0.60;;;0.60;;
8502;SDS011;4289;48.664;12.700;2023-02-15T00:27:35;0.93;;;0.93;;
8502;SDS011;4289;48.664;12.700;2023-02-15T00:31:03;0.70;;;0.70;;
8502;SDS011;4289;48.664;12.700;2023-02-15T00:34:27;0.50;;;0.50;;
8502;SDS011;4289;48.664;12.700;2023-02-15T00:37:52;0.90;;;0.90;;
8502;SDS011;4289;48.664;12.700;2023-02-15T00:41:20;0.70;;;0.70;;
8502;SDS011;4289;48.664;12.700;2023-02-15T00:44:42;0.80;;;0.80;;
8502;SDS011;4289;48.664;12.700;2023-02-15T00:48:06;0.60;;;0.60;;
8502;SDS011;4289;48.664;12.700;2023-02-15T00:51:29;0.40;;;0.40;;
8502;SDS011;4289;48.664;12.700;2023-02-15T00:54:52;0.63;;;0.63;;
8502;SDS011;4289;48.664;12.700;2023-02-15T00:58:15;0.83;;;0.83;;
8502;SDS011;4289;48.664;12.700;2023-02-15T01:01:38;0.40;;;0.40;;
8502;SDS011;4289;48.664;12.700;2023-02-15T01:05:03;0.40;;;0.40;;
8502;SDS011;4289;48.664;12.700;2023-02-15T01:08:26;0.80;;;0.80;;
8502;SDS011;4289;48.664;12.700;2023-02-15T01:11:49;1.00;;;1.00;;
8502;SDS011;4289;48.664;12.700;2023-02-15T01:15:12;0.40;;;0.40;;
8502;SDS011;4289;48.664;12.700;2023-02-15T01:18:34;0.60;;;0.60;;
8502;SDS011;4289;48.664;12.700;2023-02-15T01:21:59;0.43;;;0.43;;
8502;SDS011;4289;48.664;12.700;2023-02-15T01:25:21;0.27;;;0.27;;
8502;SDS011;4289;48.664;12.700;2023-02-15T01:28:45;0.30;;;0.30;;
8502;SDS011;4289;48.664;12.700;2023-02-15T01:32:08;0.30;;;0.30;;
8502;SDS011;4289;48.664;12.700;2023-02-15T01:35:31;0.37;;;0.37;;
8502;SDS011;4289;48.664;12.700;2023-02-15T01:38:55;0.83;;;0.83;;
8502;SDS011;4289;48.664;12.700;2023-02-15T01:42:20;0.70;;;0.70;;
8502;SDS011;4289;48.664;12.700;2023-02-15T01:45:43;0.50;;;0.50;;
8502;SDS011;4289;48.664;12.700;2023-02-15T01:49:08;0.70;;;0.70;;
8502;SDS011;4289;48.664;12.700;2023-02-15T01:52:33;0.60;;;0.60;;
8502;SDS011;4289;48.664;12.700;2023-02-15T01:56:01;0.30;;;0.30;;
8502;SDS011;4289;48.664;12.700;2023-02-15T01:59:25;0.80;;;0.80;;
8502;SDS011;4289;48.664;12.700;2023-02-15T02:02:49;0.60;;;0.60;;
8502;SDS011;4289;48.664;12.700;2023-02-15T02:06:13;0.60;;;0.60;;
8502;SDS011;4289;48.664;12.700;2023-02-15T02:09:36;0.40;;;0.40;;
8502;SDS011;4289;48.664;12.700;2023-02-15T02:13:01;0.93;;;0.93;;
8502;SDS011;4289;48.664;12.700;2023-02-15T02:16:27;0.93;;;0.93;;
8502;SDS011;4289;48.664;12.700;2023-02-15T02:24:12;0.37;;;0.37;;
8502;SDS011;4289;48.664;12.700;2023-02-15T02:27:42;0.50;;;0.50;;
8502;SDS011;4289;48.664;12.700;2023-02-15T02:31:24;0.70;;;0.70;;
8502;SDS011;4289;48.664;12.700;2023-02-15T02:35:08;1.40;;;1.30;;
8502;SDS011;4289;48.664;12.700;2023-02-15T02:38:34;0.40;;;0.40;;
8502;SDS011;4289;48.664;12.700;2023-02-15T02:42:05;0.90;;;0.90;;
8502;SDS011;4289;48.664;12.700;2023-02-15T02:45:32;0.37;;;0.37;;
8502;SDS011;4289;48.664;12.700;2023-02-15T02:48:57;0.40;;;0.40;;
8502;SDS011;4289;48.664;12.700;2023-02-15T02:52:36;0.57;;;0.57;;
8502;SDS011;4289;48.664;12.700;2023-02-15T02:56:02;0.50;;;0.50;;
8502;SDS011;4289;48.664;12.700;2023-02-15T02:59:28;0.40;;;0.40;;
8502;SDS011;4289;48.664;12.700;2023-02-15T03:02:53;0.40;;;0.40;;
8502;SDS011;4289;48.664;12.700;2023-02-15T03:06:20;0.50;;;0.50;;
8502;SDS011;4289;48.664;12.700;2023-02-15T03:09:50;0.50;;;0.50;;
8502;SDS011;4289;48.664;12.700;2023-02-15T03:13:13;0.70;;;0.70;;
8502;SDS011;4289;48.664;12.700;2023-02-15T03:16:36;0.50;;;0.50;;
8502;SDS011;4289;48.664;12.700;2023-02-15T03:20:00;0.50;;;0.50;;
8502;SDS011;4289;48.664;12.700;2023-02-15T03:23:25;0.37;;;0.37;;
8502;SDS011;4289;48.664;12.700;2023-02-15T03:26:51;0.40;;;0.40;;
8502;SDS011;4289;48.664;12.700;2023-02-15T03:30:14;0.30;;;0.30;;
8502;SDS011;4289;48.664;12.700;2023-02-15T03:33:40;0.30;;;0.30;;
8502;SDS011;4289;48.664;12.700;2023-02-15T03:37:08;0.30;;;0.30;;
8502;SDS011;4289;48.664;12.700;2023-02-15T03:40:36;0.50;;;0.50;;
8502;SDS011;4289;48.664;12.700;2023-02-15T03:44:19;0.97;;;0.97;;
8502;SDS011;4289;48.664;12.700;2023-02-15T03:47:46;0.50;;;0.50;;
8502;SDS011;4289;48.664;12.700;2023-02-15T03:51:10;1.07;;;1.00;;
8502;SDS011;4289;48.664;12.700;2023-02-15T03:54:54;1.20;;;1.20;;
8502;SDS011;4289;48.664;12.700;2023-02-15T03:58:16;0.60;;;0.60;;
8502;SDS011;4289;48.664;12.700;2023-02-15T04:02:02;0.80;;;0.80;;
8502;SDS011;4289;48.664;12.700;2023-02-15T04:05:27;0.50;;;0.50;;
8502;SDS011;4289;48.664;12.700;2023-02-15T04:08:50;0.53;;;0.53;;
8502;SDS011;4289;48.664;12.700;2023-02-15T04:12:30;0.40;;;0.40;;
8502;SDS011;4289;48.664;12.700;2023-02-15T04:15:53;0.30;;;0.30;;
8502;SDS011;4289;48.664;12.700;2023-02-15T04:19:25;0.33;;;0.33;;
8502;SDS011;4289;48.664;12.700;2023-02-15T04:23:05;0.30;;;0.30;;
8502;SDS011;4289;48.664;12.700;2023-02-15T04:26:45;0.77;;;0.77;;
8502;SDS011;4289;48.664;12.700;2023-02-15T04:30:09;0.70;;;0.70;;
8502;SDS011;4289;48.664;12.700;2023-02-15T04:33:33;0.50;;;0.50;;
8502;SDS011;4289;48.664;12.700;2023-02-15T04:36:58;0.30;;;0.30;;
8502;SDS011;4289;48.664;12.700;2023-02-15T04:40:20;0.30;;;0.30;;
8502;SDS011;4289;48.664;12.700;2023-02-15T04:43:42;0.77;;;0.77;;
8502;SDS011;4289;48.664;12.700;2023-02-15T04:47:04;0.50;;;0.50;;
8502;SDS011;4289;48.664;12.700;2023-02-15T04:50:27;0.40;;;0.40;;
8502;SDS011;4289;48.664;12.700;2023-02-15T04:53:51;0.50;;;0.50;;
8502;SDS011;4289;48.664;12.700;2023-02-15T04:57:13;0.30;;;0.30;;
8502;SDS011;4289;48.664;12.700;2023-02-15T05:00:36;0.47;;;0.47;;
8502;SDS011;4289;48.664;12.700;2023-02-15T05:03:58;0.50;;;0.50;;
8502;SDS011;4289;48.664;12.700;2023-02-15T05:07:21;0.40;;;0.40;;
8502;SDS011;4289;48.664;12.700;2023-02-15T05:10:45;0.50;;;0.50;;
8502;SDS011;4289;48.664;12.700;2023-02-15T05:14:09;0.87;;;0.87;;
8502;SDS011;4289;48.664;12.700;2023-02-15T05:17:32;0.60;;;0.60;;
8502;SDS011;4289;48.664;12.700;2023-02-15T05:20:54;0.50;;;0.50;;
8502;SDS011;4289;48.664;12.700;2023-02-15T05:24:16;0.60;;;0.60;;
8502;SDS011;4289;48.664;12.700;2023-02-15T05:27:58;1.00;;;1.00;;
8502;SDS011;4289;48.664;12.700;2023-02-15T05:31:38;0.40;;;0.40;;
8502;SDS011;4289;48.664;12.700;2023-02-15T05:35:00;0.63;;;0.63;;
8502;SDS011;4289;48.664;12.700;2023-02-15T05:38:22;0.40;;;0.40;;
8502;SDS011;4289;48.664;12.700;2023-02-15T05:41:45;0.50;;;0.50;;
8502;SDS011;4289;48.664;12.700;2023-02-15T05:45:09;0.50;;;0.50;;
8502;SDS011;4289;48.664;12.700;2023-02-15T05:48:31;0.50;;;0.50;;
8502;SDS011;4289;48.664;12.700;2023-02-15T05:51:54;0.60;;;0.60;;
8502;SDS011;4289;48.664;12.700;2023-02-15T05:55:16;0.40;;;0.40;;
8502;SDS011;4289;48.664;12.700;2023-02-15T05:58:39;0.60;;;0.60;;
8502;SDS011;4289;48.664;12.700;2023-02-15T06:02:05;0.70;;;0.70;;
8502;SDS011;4289;48.664;12.700;2023-02-15T06:05:27;0.57;;;0.57;;
8502;SDS011;4289;48.664;12.700;2023-02-15T06:08:50;0.43;;;0.43;;
8502;SDS011;4289;48.664;12.700;2023-02-15T06:12:12;0.80;;;0.80;;
8502;SDS011;4289;48.664;12.700;2023-02-15T06:15:35;0.20;;;0.20;;
8502;SDS011;4289;48.664;12.700;2023-02-15T06:18:58;0.80;;;0.80;;
8502;SDS011;4289;48.664;12.700;2023-02-15T06:22:21;0.83;;;0.83;;
8502;SDS011;4289;48.664;12.700;2023-02-15T06:25:44;0.60;;;0.60;;
8502;SDS011;4289;48.664;12.700;2023-02-15T06:29:07;0.43;;;0.43;;
8502;SDS011;4289;48.664;12.700;2023-02-15T06:32:30;0.30;;;0.30;;
8502;SDS011;4289;48.664;12.700;2023-02-15T06:35:54;0.43;;;0.43;;
8502;SDS011;4289;48.664;12.700;2023-02-15T06:39:16;1.10;;;1.10;;
8502;SDS011;4289;48.664;12.700;2023-02-15T06:42:39;0.60;;;0.60;;
8502;SDS011;4289;48.664;12.700;2023-02-15T06:46:02;0.80;;;0.80;;
8502;SDS011;4289;48.664;12.700;2023-02-15T06:49:24;0.60;;;0.60;;
8502;SDS011;4289;48.664;12.700;2023-02-15T06:52:48;0.90;;;0.90;;
8502;SDS011;4289;48.664;12.700;2023-02-15T06:56:11;0.50;;;0.50;;
8502;SDS011;4289;48.664;12.700;2023-02-15T06:59:33;0.83;;;0.83;;
8502;SDS011;4289;48.664;12.700;2023-02-15T07:02:56;0.30;;;0.30;;
8502;SDS011;4289;48.664;12.700;2023-02-15T07:06:22;0.40;;;0.40;;
8502;SDS011;4289;48.664;12.700;2023-02-15T07:09:46;0.20;;;0.20;;
8502;SDS011;4289;48.664;12.700;2023-02-15T07:13:22;0.40;;;0.40;;
8502;SDS011;4289;48.664;12.700;2023-02-15T07:16:53;0.23;;;0.23;;
8502;SDS011;4289;48.664;12.700;2023-02-15T07:20:23;0.30;;;0.30;;
8502;SDS011;4289;48.664;12.700;2023-02-15T07:23:46;0.20;;;0.20;;
8502;SDS011;4289;48.664;12.700;2023-02-15T07:27:50;0.30;;;0.30;;
8502;SDS011;4289;48.664;12.700;2023-02-15T07:31:17;0.40;;;0.40;;
8502;SDS011;4289;48.664;12.700;2023-02-15T07:34:40;0.40;;;0.40;;
8502;SDS011;4289;48.664;12.700;2023-02-15T07:38:02;0.40;;;0.40;;
8502;SDS011;4289;48.664;12.700;2023-02-15T07:41:27;1.40;;;1.40;;
8502;SDS011;4289;48.664;12.700;2023-02-15T07:44:53;0.93;;;0.93;;
8502;SDS011;4289;48.664;12.700;2023-02-15T07:48:32;0.27;;;0.27;;
8502;SDS011;4289;48.664;12.700;2023-02-15T07:51:54;0.40;;;0.40;;
8502;SDS011;4289;48.664;12.700;2023-02-15T07:55:17;0.20;;;0.20;;
8502;SDS011;4289;48.664;12.700;2023-02-15T07:58:39;0.30;;;0.30;;
8502;SDS011;4289;48.664;12.700;2023-02-15T08:02:17;0.40;;;0.40;;
8502;SDS011;4289;48.664;12.700;2023-02-15T08:05:40;0.43;;;0.43;;
8502;SDS011;4289;48.664;12.700;2023-02-15T08:09:04;0.40;;;0.40;;
8502;SDS011;4289;48.664;12.700;2023-02-15T08:12:27;0.40;;;0.40;;
8502;SDS011;4289;48.664;12.700;2023-02-15T08:15:50;0.20;;;0.20;;
8502;SDS011;4289;48.664;12.700;2023-02-15T08:19:14;0.40;;;0.40;;
8502;SDS011;4289;48.664;12.700;2023-02-15T08:22:37;0.50;;;0.50;;
8502;SDS011;4289;48.664;12.700;2023-02-15T08:26:00;0.40;;;0.40;;
8502;SDS011;4289;48.664;12.700;2023-02-15T08:29:25;0.40;;;0.40;;
8502;SDS011;4289;48.664;12.700;2023-02-15T08:32:48;0.30;;;0.30;;
8502;SDS011;4289;48.664;12.700;2023-02-15T08:36:13;0.30;;;0.30;;
8502;SDS011;4289;48.664;12.700;2023-02-15T08:39:36;0.50;;;0.50;;
8502;SDS011;4289;48.664;12.700;2023-02-15T08:42:59;0.40;;;0.40;;
8502;SDS011;4289;48.664;12.700;2023-02-15T08:46:22;0.13;;;0.13;;
8502;SDS011;4289;48.664;12.700;2023-02-15T08:49:46;0.20;;;0.20;;
8502;SDS011;4289;48.664;12.700;2023-02-15T08:53:09;0.13;;;0.13;;
8502;SDS011;4289;48.664;12.700;2023-02-15T08:56:33;0.20;;;0.20;;
8502;SDS011;4289;48.664;12.700;2023-02-15T08:59:56;0.30;;;0.30;;
8502;SDS011;4289;48.664;12.700;2023-02-15T09:03:18;0.20;;;0.20;;
8502;SDS011;4289;48.664;12.700;2023-02-15T09:06:41;0.20;;;0.20;;
8502;SDS011;4289;48.664;12.700;2023-02-15T09:10:08;0.30;;;0.30;;
8502;SDS011;4289;48.664;12.700;2023-02-15T09:13:31;0.30;;;0.30;;
8502;SDS011;4289;48.664;12.700;2023-02-15T09:16:54;0.20;;;0.20;;
8502;SDS011;4289;48.664;12.700;2023-02-15T09:20:16;0.20;;;0.20;;
8502;SDS011;4289;48.664;12.700;2023-02-15T09:23:39;0.20;;;0.20;;
8502;SDS011;4289;48.664;12.700;2023-02-15T09:27:03;0.20;;;0.20;;
8502;SDS011;4289;48.664;12.700;2023-02-15T09:30:25;0.20;;;0.20;;
8502;SDS011;4289;48.664;12.700;2023-02-15T09:33:48;0.30;;;0.30;;
8502;SDS011;4289;48.664;12.700;2023-02-15T09:37:10;0.20;;;0.20;;
8502;SDS011;4289;48.664;12.700;2023-02-15T09:40:33;0.20;;;0.20;;
8502;SDS011;4289;48.664;12.700;2023-02-15T09:44:04;0.20;;;0.20;;
8502;SDS011;4289;48.664;12.700;2023-02-15T09:47:38;0.13;;;0.13;;
8502;SDS011;4289;48.664;12.700;2023-02-15T09:51:15;0.20;;;0.20;;
8502;SDS011;4289;48.664;12.700;2023-02-15T09:54:48;0.20;;;0.20;;
8502;SDS011;4289;48.664;12.700;2023-02-15T09:58:24;0.20;;;0.20;;
8502;SDS011;4289;48.664;12.700;2023-02-15T10:01:54;0.20;;;0.20;;
8502;SDS011;4289;48.664;12.700;2023-02-15T10:05:25;0.10;;;0.10;;
8502;SDS011;4289;48.664;12.700;2023-02-15T10:09:07;0.10;;;0.10;;
8502;SDS011;4289;48.664;12.700;2023-02-15T10:12:52;0.20;;;0.20;;
8502;SDS011;4289;48.664;12.700;2023-02-15T10:16:31;0.10;;;0.10;;
8502;SDS011;4289;48.664;12.700;2023-02-15T10:20:02;0.10;;;0.10;;
8502;SDS011;4289;48.664;12.700;2023-02-15T10:23:41;0.20;;;0.20;;
8502;SDS011;4289;48.664;12.700;2023-02-15T10:27:11;0.20;;;0.20;;
8502;SDS011;4289;48.664;12.700;2023-02-15T10:30:37;0.10;;;0.10;;
8502;SDS011;4289;48.664;12.700;2023-02-15T10:34:15;0.10;;;0.10;;
8502;SDS011;4289;48.664;12.700;2023-02-15T10:37:44;0.17;;;0.17;;
8502;SDS011;4289;48.664;12.700;2023-02-15T10:41:17;0.13;;;0.13;;
8502;SDS011;4289;48.664;12.700;2023-02-15T10:44:49;0.10;;;0.10;;
8502;SDS011;4289;48.664;12.700;2023-02-15T10:48:34;0.10;;;0.10;;
8502;SDS011;4289;48.664;12.700;2023-02-15T10:52:17;0.10;;;0.10;;
8502;SDS011;4289;48.664;12.700;2023-02-15T10:55:49;0.20;;;0.20;;
8502;SDS011;4289;48.664;12.700;2023-02-15T10:59:20;0.13;;;0.13;;
8502;SDS011;4289;48.664;12.700;2023-02-15T11:03:00;0.20;;;0.20;;
8502;SDS011;4289;48.664;12.700;2023-02-15T11:06:28;0.20;;;0.20;;
8502;SDS011;4289;48.664;12.700;2023-02-15T11:09:51;0.20;;;0.20;;
8502;SDS011;4289;48.664;12.700;2023-02-15T11:13:18;0.20;;;0.20;;
8502;SDS011;4289;48.664;12.700;2023-02-15T11:16:43;0.10;;;0.10;;
8502;SDS011;4289;48.664;12.700;2023-02-15T11:20:08;0.10;;;0.10;;
8502;SDS011;4289;48.664;12.700;2023-02-15T11:23:39;0.10;;;0.10;;
8502;SDS011;4289;48.664;12.700;2023-02-15T11:27:11;0.10;;;0.10;;
8502;SDS011;4289;48.664;12.700;2023-02-15T11:30:40;0.20;;;0.20;;
8502;SDS011;4289;48.664;12.700;2023-02-15T11:34:10;0.10;;;0.10;;
8502;SDS011;4289;48.664;12.700;2023-02-15T11:37:37;0.10;;;0.10;;
8502;SDS011;4289;48.664;12.700;2023-02-15T11:41:07;0.10;;;0.10;;
8502;SDS011;4289;48.664;12.700;2023-02-15T11:44:34;0.10;;;0.10;;
8502;SDS011;4289;48.664;12.700;2023-02-15T11:48:00;0.17;;;0.17;;
8502;SDS011;4289;48.664;12.700;2023-02-15T11:51:23;0.10;;;0.10;;
8502;SDS011;4289;48.664;12.700;2023-02-15T11:54:47;0.10;;;0.10;;
8502;SDS011;4289;48.664;12.700;2023-02-15T11:58:14;0.20;;;0.20;;
8502;SDS011;4289;48.664;12.700;2023-02-15T12:01:44;0.17;;;0.17;;
8502;SDS011;4289;48.664;12.700;2023-02-15T12:05:10;0.10;;;0.10;;
8502;SDS011;4289;48.664;12.700;2023-02-15T12:08:39;0.10;;;0.10;;
8502;SDS011;4289;48.664;12.700;2023-02-15T12:12:19;0.10;;;0.10;;
8502;SDS011;4289;48.664;12.700;2023-02-15T12:15:44;0.10;;;0.10;;
8502;SDS011;4289;48.664;12.700;2023-02-15T12:19:13;0.10;;;0.10;;
8502;SDS011;4289;48.664;12.700;2023-02-15T12:22:48;0.20;;;0.20;;
8502;SDS011;4289;48.664;12.700;2023-02-15T12:26:12;0.10;;;0.10;;
8502;SDS011;4289;48.664;12.700;2023-02-15T12:29:35;0.20;;;0.20;;
8502;SDS011;4289;48.664;12.700;2023-02-15T12:33:05;0.10;;;0.10;;
8502;SDS011;4289;48.664;12.700;2023-02-15T12:36:40;0.10;;;0.10;;
8502;SDS011;4289;48.664;12.700;2023-02-15T12:40:19;0.10;;;0.10;;
8502;SDS011;4289;48.664;12.700;2023-02-15T12:43:43;0.10;;;0.10;;
8502;SDS011;4289;48.664;12.700;2023-02-15T12:47:06;0.13;;;0.13;;
8502;SDS011;4289;48.664;12.700;2023-02-15T12:50:40;0.10;;;0.10;;
8502;SDS011;4289;48.664;12.700;2023-02-15T12:54:08;0.10;;;0.10;;
8502;SDS011;4289;48.664;12.700;2023-02-15T12:58:12;0.10;;;0.10;;
8502;SDS011;4289;48.664;12.700;2023-02-15T13:01:38;0.20;;;0.20;;
8502;SDS011;4289;48.664;12.700;2023-02-15T13:05:10;0.20;;;0.20;;
8502;SDS011;4289;48.664;12.700;2023-02-15T13:08:43;0.10;;;0.10;;
8502;SDS011;4289;48.664;12.700;2023-02-15T13:12:10;0.10;;;0.10;;
8502;SDS011;4289;48.664;12.700;2023-02-15T13:15:40;0.10;;;0.10;;
8502;SDS011;4289;48.664;12.700;2023-02-15T13:19:04;0.10;;;0.10;;
8502;SDS011;4289;48.664;12.700;2023-02-15T13:22:33;0.20;;;0.20;;
8502;SDS011;4289;48.664;12.700;2023-02-15T13:26:02;0.10;;;0.10;;
8502;SDS011;4289;48.664;12.700;2023-02-15T13:29:26;0.20;;;0.20;;
8502;SDS011;4289;48.664;12.700;2023-02-15T13:32:54;0.20;;;0.20;;
8502;SDS011;4289;48.664;12.700;2023-02-15T13:36:21;0.20;;;0.20;;
8502;SDS011;4289;48.664;12.700;2023-02-15T13:39:47;0.10;;;0.10;;
8502;SDS011;4289;48.664;12.700;2023-02-15T13:43:16;0.17;;;0.17;;
8502;SDS011;4289;48.664;12.700;2023-02-15T13:46:45;0.20;;;0.20;;
8502;SDS011;4289;48.664;12.700;2023-02-15T13:50:23;0.13;;;0.13;;
8502;SDS011;4289;48.664;12.700;2023-02-15T13:54:01;0.10;;;0.10;;
8502;SDS011;4289;48.664;12.700;2023-02-15T13:57:58;0.10;;;0.10;;
8502;SDS011;4289;48.664;12.700;2023-02-15T14:01:31;0.20;;;0.20;;
8502;SDS011;4289;48.664;12.700;2023-02-15T14:05:05;0.10;;;0.10;;
8502;SDS011;4289;48.664;12.700;2023-02-15T14:08:45;0.10;;;0.10;;
8502;SDS011;4289;48.664;12.700;2023-02-15T14:12:25;0.10;;;0.10;;
8502;SDS011;4289;48.664;12.700;2023-02-15T14:15:55;0.20;;;0.20;;
8502;SDS011;4289;48.664;12.700;2023-02-15T14:19:23;0.10;;;0.10;;
8502;SDS011;4289;48.664;12.700;2023-02-15T14:22:50;0.20;;;0.20;;
8502;SDS011;4289;48.664;12.700;2023-02-15T14:26:20;0.20;;;0.20;;
8502;SDS011;4289;48.664;12.700;2023-02-15T14:29:48;0.20;;;0.20;;
8502;SDS011;4289;48.664;12.700;2023-02-15T14:33:21;0.10;;;0.10;;
8502;SDS011;4289;48.664;12.700;2023-02-15T14:36:51;0.10;;;0.10;;
8502;SDS011;4289;48.664;12.700;2023-02-15T14:40:17;0.10;;;0.10;;
8502;SDS011;4289;48.664;12.700;2023-02-15T14:44:04;0.20;;;0.20;;
8502;SDS011;4289;48.664;12.700;2023-02-15T14:47:32;0.20;;;0.20;;
8502;SDS011;4289;48.664;12.700;2023-02-15T14:50:57;0.10;;;0.10;;
8502;SDS011;4289;48.664;12.700;2023-02-15T14:58:16;0.10;;;0.10;;
8502;SDS011;4289;48.664;12.700;2023-02-15T15:01:40;0.10;;;0.10;;
8502;SDS011;4289;48.664;12.700;2023-02-15T15:05:06;0.10;;;0.10;;
8502;SDS011;4289;48.664;12.700;2023-02-15T15:08:31;0.10;;;0.10;;
8502;SDS011;4289;48.664;12.700;2023-02-15T15:12:00;0.10;;;0.10;;
8502;SDS011;4289;48.664;12.700;2023-02-15T15:15:44;0.10;;;0.10;;
8502;SDS011;4289;48.664;12.700;2023-02-15T15:19:10;0.10;;;0.10;;
8502;SDS011;4289;48.664;12.700;2023-02-15T15:22:33;0.20;;;0.20;;
8502;SDS011;4289;48.664;12.700;2023-02-15T15:25:56;0.20;;;0.20;;
8502;SDS011;4289;48.664;12.700;2023-02-15T15:29:41;0.20;;;0.20;;
8502;SDS011;4289;48.664;12.700;2023-02-15T15:33:06;0.10;;;0.10;;
8502;SDS011;4289;48.664;12.700;2023-02-15T15:40:40;0.10;;;0.10;;
8502;SDS011;4289;48.664;12.700;2023-02-15T15:47:53;0.10;;;0.10;;
8502;SDS011;4289;48.664;12.700;2023-02-15T15:51:20;0.10;;;0.10;;
8502;SDS011;4289;48.664;12.700;2023-02-15T15:54:47;0.10;;;0.10;;
8502;SDS011;4289;48.664;12.700;2023-02-15T15:58:12;0.10;;;0.10;;
8502;SDS011;4289;48.664;12.700;2023-02-15T16:01:38;0.10;;;0.10;;
8502;SDS011;4289;48.664;12.700;2023-02-15T16:05:09;0.20;;;0.20;;
8502;SDS011;4289;48.664;12.700;2023-02-15T16:08:34;0.10;;;0.10;;
8502;SDS011;4289;48.664;12.700;2023-02-15T16:11:58;0.10;;;0.10;;
8502;SDS011;4289;48.664;12.700;2023-02-15T16:15:22;0.20;;;0.20;;
8502;SDS011;4289;48.664;12.700;2023-02-15T16:18:46;0.10;;;0.10;;
8502;SDS011;4289;48.664;12.700;2023-02-15T16:22:11;0.20;;;0.20;;
8502;SDS011;4289;48.664;12.700;2023-02-15T16:25:38;0.30;;;0.30;;
8502;SDS011;4289;48.664;12.700;2023-02-15T16:29:12;0.40;;;0.40;;
8502;SDS011;4289;48.664;12.700;2023-02-15T16:32:36;0.10;;;0.10;;
8502;SDS011;4289;48.664;12.700;2023-02-15T16:35:59;0.30;;;0.30;;
8502;SDS011;4289;48.664;12.700;2023-02-15T16:39:24;0.20;;;0.20;;
8502;SDS011;4289;48.664;12.700;2023-02-15T16:42:46;0.20;;;0.20;;
8502;SDS011;4289;48.664;12.700;2023-02-15T16:46:10;0.30;;;0.30;;
8502;SDS011;4289;48.664;12.700;2023-02-15T16:49:36;0.30;;;0.30;;
8502;SDS011;4289;48.664;12.700;2023-02-15T16:53:00;0.30;;;0.30;;
8502;SDS011;4289;48.664;12.700;2023-02-15T16:56:25;0.50;;;0.50;;
8502;SDS011;4289;48.664;12.700;2023-02-15T16:59:50;0.50;;;0.50;;
8502;SDS011;4289;48.664;12.700;2023-02-15T17:03:21;0.40;;;0.40;;
8502;SDS011;4289;48.664;12.700;2023-02-15T17:06:55;0.60;;;0.60;;
8502;SDS011;4289;48.664;12.700;2023-02-15T17:10:27;0.30;;;0.30;;
8502;SDS011;4289;48.664;12.700;2023-02-15T17:14:13;0.40;;;0.40;;
8502;SDS011;4289;48.664;12.700;2023-02-15T17:17:48;0.50;;;0.50;;
8502;SDS011;4289;48.664;12.700;2023-02-15T17:21:11;0.50;;;0.50;;
8502;SDS011;4289;48.664;12.700;2023-02-15T17:24:35;0.27;;;0.27;;
8502;SDS011;4289;48.664;12.700;2023-02-15T17:27:59;0.20;;;0.20;;
8502;SDS011;4289;48.664;12.700;2023-02-15T17:31:24;0.50;;;0.50;;
8502;SDS011;4289;48.664;12.700;2023-02-15T17:34:50;0.50;;;0.50;;
8502;SDS011;4289;48.664;12.700;2023-02-15T17:38:20;0.27;;;0.27;;
8502;SDS011;4289;48.664;12.700;2023-02-15T17:41:47;0.40;;;0.40;;
8502;SDS011;4289;48.664;12.700;2023-02-15T17:45:13;0.53;;;0.53;;
8502;SDS011;4289;48.664;12.700;2023-02-15T17:48:37;0.30;;;0.30;;
8502;SDS011;4289;48.664;12.700;2023-02-15T17:52:01;0.93;;;0.93;;
8502;SDS011;4289;48.664;12.700;2023-02-15T17:55:23;0.50;;;0.50;;
8502;SDS011;4289;48.664;12.700;2023-02-15T17:59:02;0.50;;;0.50;;
8502;SDS011;4289;48.664;12.700;2023-02-15T18:02:27;0.50;;;0.50;;
8502;SDS011;4289;48.664;12.700;2023-02-15T18:06:14;0.20;;;0.20;;
8502;SDS011;4289;48.664;12.700;2023-02-15T18:09:54;0.50;;;0.50;;
8502;SDS011;4289;48.664;12.700;2023-02-15T18:13:33;0.43;;;0.43;;
8502;SDS011;4289;48.664;12.700;2023-02-15T18:16:56;0.53;;;0.53;;
8502;SDS011;4289;48.664;12.700;2023-02-15T18:20:19;1.00;;;1.00;;
8502;SDS011;4289;48.664;12.700;2023-02-15T18:23:45;0.60;;;0.60;;
8502;SDS011;4289;48.664;12.700;2023-02-15T18:27:07;0.80;;;0.80;;
8502;SDS011;4289;48.664;12.700;2023-02-15T18:30:31;1.30;;;1.20;;
8502;SDS011;4289;48.664;12.700;2023-02-15T18:33:54;0.87;;;0.87;;
8502;SDS011;4289;48.664;12.700;2023-02-15T18:37:18;0.67;;;0.60;;
8502;SDS011;4289;48.664;12.700;2023-02-15T18:40:43;1.13;;;1.13;;
8502;SDS011;4289;48.664;12.700;2023-02-15T18:44:08;0.47;;;0.47;;
8502;SDS011;4289;48.664;12.700;2023-02-15T18:47:31;0.90;;;0.90;;
8502;SDS011;4289;48.664;12.700;2023-02-15T18:50:54;1.00;;;1.00;;
8502;SDS011;4289;48.664;12.700;2023-02-15T18:54:17;0.80;;;0.80;;
8502;SDS011;4289;48.664;12.700;2023-02-15T18:57:42;0.60;;;0.60;;
8502;SDS011;4289;48.664;12.700;2023-02-15T19:01:05;0.50;;;0.50;;
8502;SDS011;4289;48.664;12.700;2023-02-15T19:04:31;0.70;;;0.70;;
8502;SDS011;4289;48.664;12.700;2023-02-15T19:07:54;1.03;;;0.97;;
8502;SDS011;4289;48.664;12.700;2023-02-15T19:11:17;1.30;;;1.20;;
8502;SDS011;4289;48.664;12.700;2023-02-15T19:14:43;1.57;;;1.47;;
8502;SDS011;4289;48.664;12.700;2023-02-15T19:18:06;0.57;;;0.57;;
8502;SDS011;4289;48.664;12.700;2023-02-15T19:21:29;0.70;;;0.70;;
8502;SDS011;4289;48.664;12.700;2023-02-15T19:25:01;1.10;;;1.10;;
8502;SDS011;4289;48.664;12.700;2023-02-15T19:28:25;0.53;;;0.53;;
8502;SDS011;4289;48.664;12.700;2023-02-15T19:31:51;0.60;;;0.60;;
8502;SDS011;4289;48.664;12.700;2023-02-15T19:35:14;0.30;;;0.30;;
8502;SDS011;4289;48.664;12.700;2023-02-15T19:38:39;0.60;;;0.60;;
8502;SDS011;4289;48.664;12.700;2023-02-15T19:42:02;0.40;;;0.40;;
8502;SDS011;4289;48.664;12.700;2023-02-15T19:45:26;0.47;;;0.47;;
8502;SDS011;4289;48.664;12.700;2023-02-15T19:48:51;0.30;;;0.30;;
8502;SDS011;4289;48.664;12.700;2023-02-15T19:52:15;1.33;;;1.27;;
8502;SDS011;4289;48.664;12.700;2023-02-15T19:55:39;0.90;;;0.90;;
8502;SDS011;4289;48.664;12.700;2023-02-15T19:59:01;0.60;;;0.60;;
8502;SDS011;4289;48.664;12.700;2023-02-15T20:02:24;0.50;;;0.50;;
8502;SDS011;4289;48.664;12.700;2023-02-15T20:05:48;0.70;;;0.70;;
8502;SDS011;4289;48.664;12.700;2023-02-15T20:09:13;0.50;;;0.50;;
8502;SDS011;4289;48.664;12.700;2023-02-15T20:12:43;0.50;;;0.50;;
8502;SDS011;4289;48.664;12.700;2023-02-15T20:16:05;0.30;;;0.30;;
8502;SDS011;4289;48.664;12.700;2023-02-15T20:19:28;0.30;;;0.30;;
8502;SDS011;4289;48.664;12.700;2023-02-15T20:22:52;0.50;;;0.50;;
8502;SDS011;4289;48.664;12.700;2023-02-15T20:26:15;0.50;;;0.50;;
8502;SDS011;4289;48.664;12.700;2023-02-15T20:29:38;0.50;;;0.50;;
8502;SDS011;4289;48.664;12.700;2023-02-15T20:33:00;0.93;;;0.93;;
8502;SDS011;4289;48.664;12.700;2023-02-15T20:36:23;0.30;;;0.30;;
8502;SDS011;4289;48.664;12.700;2023-02-15T20:39:48;0.83;;;0.83;;
8502;SDS011;4289;48.664;12.700;2023-02-15T20:43:12;0.90;;;0.90;;
8502;SDS011;4289;48.664;12.700;2023-02-15T20:46:36;0.97;;;0.97;;
8502;SDS011;4289;48.664;12.700;2023-02-15T20:49:58;0.70;;;0.70;;
8502;SDS011;4289;48.664;12.700;2023-02-15T20:53:24;0.40;;;0.40;;
8502;SDS011;4289;48.664;12.700;2023-02-15T20:56:49;0.63;;;0.63;;
8502;SDS011;4289;48.664;12.700;2023-02-15T21:00:14;0.60;;;0.60;;
8502;SDS011;4289;48.664;12.700;2023-02-15T21:03:38;0.60;;;0.60;;
8502;SDS011;4289;48.664;12.700;2023-02-15T21:07:00;0.80;;;0.80;;
8502;SDS011;4289;48.664;12.700;2023-02-15T21:10:24;0.50;;;0.50;;
8502;SDS011;4289;48.664;12.700;2023-02-15T21:13:50;0.50;;;0.50;;
8502;SDS011;4289;48.664;12.700;2023-02-15T21:17:14;0.53;;;0.53;;
8502;SDS011;4289;48.664;12.700;2023-02-15T21:20:38;0.37;;;0.37;;